Time;durP1;ratioP1;P1;durP2;ratioP2;P2;SDS_P1;SDS_P2;PMS_P1;PMS_P2;Temp;Humidity;BMP_temperature;BMP_pressure;BME280_temperature;BME280_humidity;BME280_pressure;Samples;Min_cycle;Max_cycle;Signal;HPM_P1;HPM_P2
2023/09/10 00:01:04;;;;;;;4.68;4.15;;;;;;;23.47;48.58;93695.72;4739333;30;20056;-94
2023/09/10 00:03:32;;;;;;;4.70;3.90;;;;;;;23.47;48.62;93692.97;4724402;30;20048;-94
2023/09/10 00:06:01;;;;;;;4.65;3.60;;;;;;;23.46;48.87;93685.97;4738204;30;20500;-94
2023/09/10 00:08:29;;;;;;;5.03;3.85;;;;;;;23.49;48.56;93692.44;4753246;30;20045;-94
2023/09/10 00:10:59;;;;;;;4.20;3.80;;;;;;;23.47;48.92;93684.69;4739930;30;20116;-93
2023/09/10 00:13:26;;;;;;;3.70;3.30;;;;;;;23.46;48.75;93697.00;4786437;29;20073;-94
2023/09/10 00:15:54;;;;;;;4.40;3.65;;;;;;;23.49;48.59;93690.41;4790127;29;20283;-93
2023/09/10 00:18:27;;;;;;;6.07;3.72;;;;;;;23.47;48.55;93684.69;4805196;29;20048;-92
2023/09/10 00:20:54;;;;;;;4.50;4.10;;;;;;;23.48;48.67;93694.44;4779464;29;20055;-93
2023/09/10 00:23:21;;;;;;;3.90;3.33;;;;;;;23.45;48.57;93695.50;4777824;29;20057;-93
2023/09/10 00:25:49;;;;;;;4.47;3.30;;;;;;;23.47;48.45;93692.97;4848593;29;20047;-93
2023/09/10 00:28:15;;;;;;;4.32;3.70;;;;;;;23.45;48.80;93692.75;4789430;29;20079;-93
2023/09/10 00:30:41;;;;;;;4.40;4.00;;;;;;;23.47;48.74;93690.19;4822067;29;21863;-92
2023/09/10 00:33:07;;;;;;;4.07;3.58;;;;;;;23.46;48.49;93691.47;4828021;29;20065;-92
2023/09/10 00:35:35;;;;;;;4.82;3.63;;;;;;;23.45;48.53;93686.50;4846514;29;20052;-92
2023/09/10 00:38:03;;;;;;;4.38;3.58;;;;;;;23.46;48.50;93694.25;4822130;29;20392;-92
2023/09/10 00:40:30;;;;;;;4.03;3.47;;;;;;;23.45;48.63;93689.25;4882663;29;20112;-92
2023/09/10 00:42:56;;;;;;;5.07;4.00;;;;;;;23.43;48.59;93695.31;4809095;29;20058;-92
2023/09/10 00:45:22;;;;;;;5.35;3.60;;;;;;;23.45;48.56;93690.00;4822089;29;20111;-91
2023/09/10 00:47:47;;;;;;;4.53;3.40;;;;;;;23.44;48.67;93685.00;4812517;29;20058;-93
2023/09/10 00:50:25;;;;;;;4.45;3.70;;;;;;;23.42;48.69;93688.31;4790507;29;20071;-93
2023/09/10 00:52:52;;;;;;;4.97;3.30;;;;;;;23.46;48.52;93691.47;4767316;29;20047;-94
2023/09/10 00:55:19;;;;;;;4.38;3.88;;;;;;;23.43;48.73;93689.03;4738366;29;20158;-93
2023/09/10 00:57:50;;;;;;;4.80;4.20;;;;;;;23.43;48.59;93689.03;4774539;29;20050;-95
2023/09/10 01:00:27;;;;;;;4.15;3.33;;;;;;;23.42;48.57;93687.56;4790618;29;20150;-93
2023/09/10 01:02:53;;;;;;;3.45;3.15;;;;;;;23.41;48.53;93686.81;4789020;29;20047;-93
2023/09/10 01:05:18;;;;;;;3.50;3.15;;;;;;;23.42;48.72;93680.03;4754420;29;20516;-93
2023/09/10 01:07:44;;;;;;;4.20;3.58;;;;;;;23.40;48.23;93682.59;4767712;29;20123;-93
2023/09/10 01:10:11;;;;;;;4.20;3.80;;;;;;;23.42;48.67;93680.03;4778155;29;20565;-93
2023/09/10 01:12:51;;;;;;;3.60;3.30;;;;;;;23.42;48.60;93682.78;4761741;29;20065;-93
2023/09/10 01:15:30;;;;;;;5.45;4.20;;;;;;;23.43;48.64;93680.78;4782635;29;20043;-93
2023/09/10 01:18:04;;;;;;;4.22;3.83;;;;;;;23.40;48.68;93677.06;4780447;29;20061;-92
2023/09/10 01:20:35;;;;;;;4.63;3.63;;;;;;;23.39;48.65;93672.81;4795954;29;20118;-94
2023/09/10 01:23:09;;;;;;;4.25;3.85;;;;;;;23.42;48.49;93682.03;4866545;24;20141;-94
2023/09/10 01:25:36;;;;;;;3.50;3.20;;;;;;;23.40;48.61;93679.09;4847109;29;20508;-93
2023/09/10 01:28:10;;;;;;;4.03;3.35;;;;;;;23.38;48.50;93682.41;4849540;29;20413;-94
2023/09/10 01:30:42;;;;;;;4.68;3.25;;;;;;;23.37;48.70;93683.69;4848913;29;20044;-94
2023/09/10 01:33:34;;;;;;;4.20;3.78;;;;;;;23.41;48.73;93686.09;4898447;29;20049;-93
2023/09/10 01:36:04;;;;;;;4.30;3.55;;;;;;;23.39;48.65;93678.34;4880918;29;20052;-93
2023/09/10 01:38:41;;;;;;;3.75;3.40;;;;;;;23.38;48.72;93687.19;4863586;23;20049;-93
2023/09/10 01:41:20;;;;;;;5.40;3.78;;;;;;;23.38;48.60;93681.66;4811071;29;20153;-94
2023/09/10 01:43:46;;;;;;;4.35;3.33;;;;;;;23.38;48.43;93676.16;4841372;29;20037;-93
2023/09/10 01:46:12;;;;;;;4.47;3.70;;;;;;;23.38;48.67;93679.66;4838493;29;20034;-93
2023/09/10 01:48:38;;;;;;;4.05;3.65;;;;;;;23.38;48.49;93673.38;4836769;29;20053;-93
2023/09/10 01:51:03;;;;;;;4.13;3.70;;;;;;;23.40;48.58;93674.31;4779936;29;20038;-93
2023/09/10 01:53:29;;;;;;;4.10;3.53;;;;;;;23.37;48.49;93677.41;4778479;29;20054;-93
2023/09/10 01:55:56;;;;;;;4.00;3.60;;;;;;;23.38;48.60;93681.66;4790672;29;20046;-94
2023/09/10 01:58:23;;;;;;;3.78;3.47;;;;;;;23.37;48.51;93688.47;4792470;29;20114;-94
2023/09/10 02:00:50;;;;;;;4.28;3.40;;;;;;;23.37;48.48;93683.69;4786529;29;20062;-94
2023/09/10 02:03:21;;;;;;;5.50;3.80;;;;;;;23.37;48.57;93686.44;4745997;30;20048;-93
2023/09/10 02:05:48;;;;;;;3.88;3.45;;;;;;;23.37;48.79;93680.91;4760360;30;20050;-94
2023/09/10 02:08:17;;;;;;;3.67;3.38;;;;;;;23.40;48.35;93682.59;4749553;30;20048;-93
2023/09/10 02:10:45;;;;;;;3.53;3.22;;;;;;;23.36;48.44;93687.72;4707609;30;20136;-94
2023/09/10 02:13:10;;;;;;;3.90;3.50;;;;;;;23.36;48.37;93687.72;4707348;30;20076;-93
2023/09/10 02:15:39;;;;;;;3.40;2.95;;;;;;;23.38;48.60;93684.41;4735063;30;20060;-93
2023/09/10 02:18:08;;;;;;;4.40;3.40;;;;;;;23.37;48.68;93696.72;4711317;30;20052;-95
2023/09/10 02:20:40;;;;;;;4.32;3.70;;;;;;;23.35;48.51;93689.00;4698041;30;20050;-94
2023/09/10 02:23:07;;;;;;;3.88;3.47;;;;;;;23.36;48.50;93690.47;4727062;30;20029;-94
2023/09/10 02:25:35;;;;;;;4.45;3.60;;;;;;;23.35;48.37;93689.00;4723922;30;20162;-93
2023/09/10 02:28:02;;;;;;;3.90;3.50;;;;;;;23.34;48.83;93682.00;4860195;23;20063;-93
2023/09/10 02:30:29;;;;;;;3.30;3.00;;;;;;;23.37;48.41;93675.41;4887382;29;20040;-94
2023/09/10 02:32:59;;;;;;;3.65;3.22;;;;;;;23.37;48.42;93674.66;4854979;29;20052;-94
2023/09/10 02:35:25;;;;;;;4.75;3.72;;;;;;;23.35;48.64;93671.69;4792963;29;20598;-93
2023/09/10 02:37:51;;;;;;;4.03;3.63;;;;;;;23.35;48.40;93677.22;4781961;29;20514;-93
2023/09/10 02:40:19;;;;;;;4.22;3.72;;;;;;;23.35;48.43;93671.69;4822942;29;20410;-93
2023/09/10 02:42:45;;;;;;;4.55;3.83;;;;;;;23.34;48.58;93679.22;4782407;29;20084;-94
2023/09/10 02:45:11;;;;;;;3.90;3.45;;;;;;;23.33;48.51;93677.75;4790208;29;20038;-93
2023/09/10 02:47:39;;;;;;;3.75;3.10;;;;;;;23.33;48.55;93677.00;4789253;29;20115;-93
2023/09/10 02:50:05;;;;;;;3.85;3.42;;;;;;;23.33;48.52;93686.03;4813033;29;20103;-95
2023/09/10 02:52:34;;;;;;;3.63;3.05;;;;;;;23.32;48.48;93676.28;4794612;29;20095;-93
2023/09/10 02:55:03;;;;;;;4.30;3.85;;;;;;;23.32;48.46;93683.81;4793996;29;20542;-93
2023/09/10 02:57:30;;;;;;;3.75;3.35;;;;;;;23.33;48.55;93682.53;4783419;29;20046;-94
2023/09/10 02:59:56;;;;;;;4.05;3.10;;;;;;;23.33;48.59;93682.53;4802719;29;20050;-93
2023/09/10 03:02:22;;;;;;;4.40;4.00;;;;;;;23.32;48.57;93676.28;4794396;29;20096;-93
2023/09/10 03:04:48;;;;;;;4.13;3.55;;;;;;;23.33;48.64;93672.22;4754084;30;20039;-93
2023/09/10 03:07:15;;;;;;;4.13;3.45;;;;;;;23.32;48.42;93686.56;4759177;29;20051;-94
2023/09/10 03:09:41;;;;;;;4.13;3.72;;;;;;;23.31;48.41;93674.78;4790117;29;20047;-93
2023/09/10 03:12:35;;;;;;;3.90;3.30;;;;;;;23.33;48.39;93682.53;4785703;29;20032;-94
2023/09/10 03:15:00;;;;;;;3.85;3.20;;;;;;;23.31;48.38;93685.81;4796161;23;20085;-93
2023/09/10 03:17:29;;;;;;;3.22;2.92;;;;;;;23.30;48.50;93678.06;4867442;29;20040;-93
2023/09/10 03:19:55;;;;;;;3.83;3.42;;;;;;;23.30;48.58;93680.84;4875809;29;20036;-94
2023/09/10 03:22:28;;;;;;;4.38;3.25;;;;;;;23.29;48.48;93673.84;4876997;29;20072;-94
2023/09/10 03:24:56;;;;;;;3.78;3.25;;;;;;;23.30;48.42;93669.81;4871544;29;20048;-93
2023/09/10 03:27:30;;;;;;;3.60;2.95;;;;;;;23.31;48.33;93672.03;4862975;29;20064;-94
2023/09/10 03:29:58;;;;;;;5.22;3.60;;;;;;;23.29;48.65;93669.06;4890979;29;20048;-94
2023/09/10 03:32:23;;;;;;;4.38;3.67;;;;;;;23.31;48.27;93669.28;4861055;29;20044;-94
2023/09/10 03:34:51;;;;;;;3.58;3.15;;;;;;;23.30;48.68;93676.06;4889702;29;20056;-93
2023/09/10 03:37:19;;;;;;;4.97;3.35;;;;;;;23.31;48.36;93666.50;4858757;29;20062;-94
2023/09/10 03:39:49;;;;;;;5.13;3.80;;;;;;;23.30;48.42;93664.28;4865693;29;20056;-94
2023/09/10 03:42:16;;;;;;;4.18;3.38;;;;;;;23.31;48.42;93671.28;4865740;29;20048;-94
2023/09/10 03:44:43;;;;;;;5.00;3.88;;;;;;;23.29;48.35;93671.81;4878916;29;20468;-93
2023/09/10 03:47:08;;;;;;;4.00;3.60;;;;;;;23.28;48.44;93670.34;4845182;29;20520;-93
2023/09/10 03:49:36;;;;;;;3.13;2.83;;;;;;;23.27;48.49;93668.84;4891665;29;20051;-94
2023/09/10 03:52:14;;;;;;;3.35;3.05;;;;;;;23.28;48.48;93659.31;4893950;29;20374;-93
2023/09/10 03:54:42;;;;;;;3.67;3.30;;;;;;;23.31;48.40;93666.50;4871605;29;20041;-94
2023/09/10 03:57:07;;;;;;;4.07;3.50;;;;;;;23.30;48.39;93664.28;4857029;29;20059;-94
2023/09/10 03:59:34;;;;;;;4.30;3.47;;;;;;;23.30;48.43;93665.03;4856190;29;20036;-94
2023/09/10 04:02:04;;;;;;;3.30;3.00;;;;;;;23.26;48.55;93659.09;4833474;29;20038;-94
2023/09/10 04:04:30;;;;;;;4.57;3.88;;;;;;;23.26;48.68;93650.81;4849021;29;20042;-93
2023/09/10 04:06:58;;;;;;;4.05;3.20;;;;;;;23.25;48.44;93655.59;4844515;29;20138;-94
2023/09/10 04:09:24;;;;;;;4.80;3.50;;;;;;;23.27;48.63;93646.78;4830537;29;20045;-93
2023/09/10 04:11:50;;;;;;;3.55;3.15;;;;;;;23.25;48.38;93652.09;4831321;29;20049;-94
2023/09/10 04:14:20;;;;;;;5.00;3.70;;;;;;;23.27;48.45;93657.81;4809729;29;20050;-93
2023/09/10 04:16:45;;;;;;;4.68;4.15;;;;;;;23.27;48.47;93663.34;4843156;29;20438;-93
2023/09/10 04:19:14;;;;;;;4.13;3.60;;;;;;;23.27;48.46;93665.34;4814139;29;20053;-94
2023/09/10 04:21:39;;;;;;;4.20;3.17;;;;;;;23.25;48.23;93663.88;4826539;29;20042;-93
2023/09/10 04:24:05;;;;;;;4.53;3.90;;;;;;;23.26;48.36;93670.13;4817091;29;20102;-93
2023/09/10 04:26:31;;;;;;;3.63;2.75;;;;;;;23.24;48.47;93669.91;4816694;29;20066;-94
2023/09/10 04:28:58;;;;;;;3.60;3.30;;;;;;;23.24;48.27;93669.91;4843704;29;20124;-94
2023/09/10 04:31:25;;;;;;;5.00;3.20;;;;;;;23.23;48.34;93669.19;4846214;29;20068;-93
2023/09/10 04:34:03;;;;;;;5.43;3.60;;;;;;;23.25;48.51;93674.16;4818598;29;20068;-94
2023/09/10 04:36:30;;;;;;;3.92;3.20;;;;;;;23.25;48.56;93672.16;4859883;29;20689;-94
2023/09/10 04:38:57;;;;;;;3.97;3.30;;;;;;;23.24;48.44;93667.91;4820742;29;20071;-93
2023/09/10 04:41:23;;;;;;;3.83;3.05;;;;;;;23.24;48.26;93664.41;4814159;29;20106;-93
2023/09/10 04:43:49;;;;;;;3.95;3.38;;;;;;;23.25;48.31;93674.16;4800183;29;20113;-94
2023/09/10 04:46:15;;;;;;;3.40;3.10;;;;;;;23.26;48.37;93678.41;4797391;29;20051;-93
2023/09/10 04:48:43;;;;;;;4.40;3.50;;;;;;;23.24;48.34;93680.97;4812628;29;20053;-93
2023/09/10 04:51:09;;;;;;;3.67;3.20;;;;;;;23.25;48.30;93671.41;4808987;29;20038;-93
2023/09/10 04:53:38;;;;;;;4.45;3.35;;;;;;;23.23;48.39;93663.66;4818036;29;20544;-92
2023/09/10 04:56:12;;;;;;;3.92;3.47;;;;;;;23.23;48.06;93680.22;4843357;29;20307;-93
2023/09/10 04:58:38;;;;;;;4.03;3.55;;;;;;;23.24;48.32;93684.47;4808410;29;20043;-94
2023/09/10 05:01:03;;;;;;;3.50;3.15;;;;;;;23.25;48.31;93683.19;4771177;29;20046;-94
2023/09/10 05:03:30;;;;;;;4.63;3.70;;;;;;;23.24;48.25;93689.97;4789147;29;20051;-93
2023/09/10 05:05:59;;;;;;;3.90;3.25;;;;;;;23.27;48.30;93684.66;4798315;29;20043;-94
2023/09/10 05:08:26;;;;;;;5.55;3.72;;;;;;;23.27;48.10;93682.66;4816561;29;20051;-93
2023/09/10 05:10:52;;;;;;;4.00;3.47;;;;;;;23.29;48.21;93682.84;4798601;29;20093;-94
2023/09/10 05:13:21;;;;;;;3.92;3.00;;;;;;;23.27;48.35;93690.91;4810123;29;20050;-93
2023/09/10 05:15:54;;;;;;;3.92;3.53;;;;;;;23.28;48.11;93694.44;4815788;29;20433;-93
2023/09/10 05:18:24;;;;;;;5.45;4.13;;;;;;;23.30;48.12;93689.13;4837649;29;20126;-94
2023/09/10 05:20:52;;;;;;;3.20;2.90;;;;;;;23.31;48.07;93694.09;4803489;29;20095;-93
2023/09/10 05:23:20;;;;;;;3.15;2.85;;;;;;;23.31;48.18;93696.13;4794066;29;20053;-93
2023/09/10 05:25:46;;;;;;;4.78;3.47;;;;;;;23.32;48.16;93700.34;4816126;29;20042;-93
2023/09/10 05:28:13;;;;;;;3.88;3.47;;;;;;;23.33;47.90;93688.03;4826746;29;20053;-93
2023/09/10 05:30:38;;;;;;;4.15;3.42;;;;;;;23.35;48.16;93691.75;4834316;29;20076;-93
2023/09/10 05:33:05;;;;;;;3.50;3.20;;;;;;;23.35;48.08;93694.50;4815433;29;20054;-94
2023/09/10 05:35:31;;;;;;;5.03;3.75;;;;;;;23.38;47.83;93703.72;4820872;29;20041;-93
2023/09/10 05:37:58;;;;;;;3.90;3.30;;;;;;;23.37;47.80;93703.00;4823955;29;20090;-93
2023/09/10 05:40:25;;;;;;;4.18;3.78;;;;;;;23.41;48.00;93697.84;4822020;29;20538;-93
2023/09/10 05:42:52;;;;;;;3.92;3.53;;;;;;;23.42;47.86;93706.88;4785032;29;20091;-93
2023/09/10 05:45:20;;;;;;;4.72;4.05;;;;;;;23.43;47.72;93705.59;4806955;29;20047;-95
2023/09/10 05:47:46;;;;;;;3.83;3.38;;;;;;;23.45;47.87;93705.81;4793689;29;20047;-92
2023/09/10 05:50:13;;;;;;;4.60;3.78;;;;;;;23.46;47.64;93707.28;4808894;29;20046;-93
2023/09/10 05:52:39;;;;;;;4.22;3.80;;;;;;;23.47;47.66;93704.00;4801546;29;20043;-92
2023/09/10 05:55:11;;;;;;;4.00;3.60;;;;;;;23.49;47.80;93709.72;4778387;29;20057;-92
2023/09/10 05:57:38;;;;;;;3.25;2.85;;;;;;;23.50;47.46;93707.69;4797584;29;20046;-93
2023/09/10 06:00:13;;;;;;;3.53;3.13;;;;;;;23.50;47.76;93713.22;4797693;29;20051;-93
2023/09/10 06:02:38;;;;;;;4.18;3.78;;;;;;;23.51;47.48;93701.66;4793112;29;20134;-95
2023/09/10 06:05:05;;;;;;;4.38;3.78;;;;;;;23.53;47.59;93715.69;4785262;29;20051;-92
2023/09/10 06:07:31;;;;;;;3.70;2.97;;;;;;;23.54;47.67;93714.41;4789748;29;20047;-93
2023/09/10 06:09:57;;;;;;;3.88;3.17;;;;;;;23.56;47.64;93719.38;4790575;29;20062;-93
2023/09/10 06:12:27;;;;;;;4.13;3.40;;;;;;;23.56;47.58;93724.91;4803431;29;20136;-94
2023/09/10 06:14:53;;;;;;;3.25;2.90;;;;;;;23.60;47.52;93705.25;4830584;29;20053;-94
2023/09/10 06:17:25;;;;;;;3.47;2.88;;;;;;;23.61;47.37;93710.22;4822633;29;20057;-94
2023/09/10 06:19:52;;;;;;;4.30;3.17;;;;;;;23.62;47.39;93716.47;4827468;29;20052;-94
2023/09/10 06:22:17;;;;;;;2.85;2.55;;;;;;;23.61;47.40;93710.22;4823416;29;20066;-93
2023/09/10 06:24:43;;;;;;;3.75;2.80;;;;;;;23.64;47.38;93719.44;4808127;29;20685;-93
2023/09/10 06:27:20;;;;;;;3.40;3.00;;;;;;;23.64;47.51;93713.91;4791113;29;20538;-93
2023/09/10 06:29:46;;;;;;;2.80;2.60;;;;;;;23.68;47.26;93722.63;4812207;29;20050;-94
2023/09/10 06:32:12;;;;;;;4.30;3.25;;;;;;;23.69;47.34;93722.06;4816695;29;20042;-94
2023/09/10 06:34:39;;;;;;;2.80;2.58;;;;;;;23.71;47.27;93721.53;4798226;29;20315;-94
2023/09/10 06:37:09;;;;;;;3.40;3.10;;;;;;;23.73;47.31;93724.50;4803371;29;20070;-94
2023/09/10 06:39:38;;;;;;;3.55;2.90;;;;;;;23.74;47.55;93723.97;4780612;29;20076;-93
2023/09/10 06:42:13;;;;;;;3.10;2.72;;;;;;;23.76;47.24;93715.91;4776622;29;20757;-92
2023/09/10 06:44:43;;;;;;;3.17;2.88;;;;;;;23.79;47.17;93725.13;4795972;29;20050;-94
2023/09/10 06:47:11;;;;;;;4.43;3.22;;;;;;;23.81;47.41;93720.53;4810884;29;20050;-93
2023/09/10 06:49:36;;;;;;;3.22;2.80;;;;;;;23.83;47.38;93729.00;4781020;30;20048;-94
2023/09/10 06:52:02;;;;;;;3.85;2.95;;;;;;;23.84;47.07;93724.97;4748958;30;20332;-93
2023/09/10 06:54:28;;;;;;;4.25;3.10;;;;;;;23.87;47.01;93723.16;4787880;29;20046;-93
2023/09/10 06:57:00;;;;;;;3.58;3.28;;;;;;;23.87;47.24;93732.16;4809329;29;20058;-94
2023/09/10 06:59:27;;;;;;;4.32;2.60;;;;;;;23.87;47.15;93732.16;4793128;29;20043;-93
2023/09/10 07:01:52;;;;;;;3.40;3.08;;;;;;;23.89;47.22;93737.16;4793057;29;20047;-93
2023/09/10 07:04:21;;;;;;;3.85;3.00;;;;;;;23.87;47.16;93729.41;4802839;29;20052;-93
2023/09/10 07:06:47;;;;;;;3.83;2.80;;;;;;;23.91;47.31;93735.34;4863633;29;20045;-93
2023/09/10 07:09:15;;;;;;;4.15;3.20;;;;;;;23.93;47.20;93737.56;4803779;29;20145;-93
2023/09/10 07:11:41;;;;;;;3.30;3.00;;;;;;;23.94;47.27;93730.75;4811471;29;20046;-94
2023/09/10 07:14:14;;;;;;;3.25;2.58;;;;;;;23.96;47.07;93730.22;4812996;29;20062;-93
2023/09/10 07:16:41;;;;;;;3.00;2.42;;;;;;;23.98;47.06;93736.69;4802009;29;20426;-93
2023/09/10 07:19:08;;;;;;;3.13;2.55;;;;;;;23.97;47.01;93731.72;4840310;29;20538;-94
2023/09/10 07:21:35;;;;;;;3.55;3.03;;;;;;;23.98;47.26;93733.19;4840354;29;20522;-93
2023/09/10 07:24:06;;;;;;;3.08;2.78;;;;;;;24.00;47.09;93736.16;4809086;29;20050;-93
2023/09/10 07:26:34;;;;;;;3.70;3.10;;;;;;;24.02;47.17;93737.09;4905222;23;20422;-94
2023/09/10 07:29:00;;;;;;;3.25;2.95;;;;;;;24.03;46.84;93733.06;4851294;29;20049;-94
2023/09/10 07:31:29;;;;;;;3.53;2.97;;;;;;;24.05;46.94;93738.00;4839988;29;20072;-94
2023/09/10 07:33:55;;;;;;;3.27;2.97;;;;;;;24.04;47.00;93737.28;4869393;29;20056;-93
2023/09/10 07:36:21;;;;;;;3.17;2.88;;;;;;;24.09;46.89;93735.66;4836199;29;20041;-93
2023/09/10 07:38:48;;;;;;;3.35;3.00;;;;;;;24.06;47.08;93728.44;4849226;29;20052;-94
2023/09/10 07:41:14;;;;;;;3.55;3.05;;;;;;;24.07;47.12;93732.69;4839805;29;20049;-93
2023/09/10 07:43:41;;;;;;;2.75;2.53;;;;;;;24.09;47.07;93732.91;4832418;29;20463;-93
2023/09/10 07:46:07;;;;;;;3.13;2.70;;;;;;;24.08;47.13;93736.94;4851583;29;20056;-92
2023/09/10 07:48:34;;;;;;;3.85;2.67;;;;;;;24.08;47.14;93739.69;4810947;29;20062;-94
2023/09/10 07:51:00;;;;;;;3.13;2.70;;;;;;;24.10;47.06;93734.38;4796946;29;20047;-93
2023/09/10 07:53:27;;;;;;;3.05;2.70;;;;;;;24.09;46.94;93733.63;4749341;30;20052;-94
2023/09/10 07:55:58;;;;;;;3.00;2.63;;;;;;;24.09;47.04;93727.38;4711136;30;20060;-93
2023/09/10 07:58:23;;;;;;;3.10;2.80;;;;;;;24.10;47.05;93735.13;4705847;30;20049;-93
2023/09/10 08:00:53;;;;;;;3.20;2.70;;;;;;;24.11;47.03;93733.09;4689587;30;20045;-93
2023/09/10 08:03:20;;;;;;;3.53;3.22;;;;;;;24.13;47.06;93736.81;4686940;30;20069;-93
2023/09/10 08:05:48;;;;;;;3.13;2.83;;;;;;;24.14;47.02;93741.06;4721257;30;20053;-93
2023/09/10 08:08:19;;;;;;;3.28;2.95;;;;;;;24.15;47.04;93742.53;4679019;30;20054;-93
2023/09/10 08:10:45;;;;;;;3.75;3.35;;;;;;;24.14;47.19;93730.00;4681398;30;20145;-94
2023/09/10 08:13:14;;;;;;;3.47;2.70;;;;;;;24.16;47.14;93732.22;4668864;30;20063;-93
2023/09/10 08:15:43;;;;;;;3.42;3.00;;;;;;;24.15;46.96;93739.03;4628280;30;20047;-93
2023/09/10 08:18:10;;;;;;;3.20;2.90;;;;;;;24.13;47.13;93736.06;4629954;30;20059;-95
2023/09/10 08:20:39;;;;;;;3.97;3.40;;;;;;;24.13;47.41;93734.03;4667479;30;20122;-94
2023/09/10 08:23:07;;;;;;;4.07;3.50;;;;;;;24.14;47.15;93734.78;4682345;30;20061;-93
2023/09/10 08:25:34;;;;;;;4.05;3.13;;;;;;;24.13;47.18;93738.81;4683822;30;20459;-93
2023/09/10 08:28:02;;;;;;;3.88;2.67;;;;;;;24.11;47.01;93738.63;4736712;30;20056;-94
2023/09/10 08:30:28;;;;;;;3.40;3.10;;;;;;;24.11;47.59;93742.13;4715819;30;20141;-93
2023/09/10 08:32:54;;;;;;;3.20;2.90;;;;;;;24.10;47.01;93737.88;4715759;30;20487;-93
2023/09/10 08:35:21;;;;;;;3.35;2.78;;;;;;;24.09;47.00;93736.41;4711191;30;20060;-94
2023/09/10 08:37:48;;;;;;;3.72;3.10;;;;;;;24.10;47.31;93732.34;4713134;30;20390;-93
2023/09/10 08:40:20;;;;;;;4.05;3.20;;;;;;;24.08;47.17;93737.69;4765145;29;20087;-95
2023/09/10 08:43:10;;;;;;;4.05;3.17;;;;;;;24.07;47.38;93741.72;4824569;29;20077;-93
2023/09/10 08:45:35;;;;;;;3.87;3.47;;;;;;;24.09;47.61;93738.41;4811335;29;20072;-93
2023/09/10 08:48:03;;;;;;;3.65;3.35;;;;;;;24.09;47.37;93730.13;4844282;29;20437;-93
2023/09/10 08:50:30;;;;;;;4.05;2.95;;;;;;;24.08;47.35;93729.41;4848194;29;20048;-94
2023/09/10 08:52:57;;;;;;;3.42;3.13;;;;;;;24.08;47.56;93737.69;4848900;29;20049;-93
2023/09/10 08:55:22;;;;;;;3.45;3.15;;;;;;;24.08;47.43;93740.44;4794996;29;20050;-95
2023/09/10 08:57:53;;;;;;;3.60;3.30;;;;;;;24.08;47.66;93737.69;4809834;29;20050;-93
2023/09/10 09:00:22;;;;;;;3.70;3.25;;;;;;;24.09;47.59;93732.91;4813120;29;20060;-94
2023/09/10 09:02:49;;;;;;;3.42;3.13;;;;;;;24.09;47.55;93738.41;4879835;23;20045;-93
2023/09/10 09:05:15;;;;;;;4.38;3.97;;;;;;;24.10;47.72;93739.91;4831137;29;20053;-93
2023/09/10 09:07:46;;;;;;;3.75;3.40;;;;;;;24.08;47.79;93736.94;4815685;29;20041;-93
2023/09/10 09:10:18;;;;;;;4.75;3.95;;;;;;;24.09;47.71;93739.16;4829676;29;20038;-94
2023/09/10 09:12:44;;;;;;;4.32;3.85;;;;;;;24.07;47.82;93730.69;4813849;29;20110;-92
2023/09/10 09:15:10;;;;;;;3.78;3.35;;;;;;;24.07;47.88;93725.16;4822734;29;20046;-94
2023/09/10 09:17:54;;;;;;;4.22;3.80;;;;;;;24.06;47.78;93731.97;4819678;29;20067;-93
2023/09/10 09:20:28;;;;;;;3.53;3.20;;;;;;;24.07;47.73;93735.47;4852774;29;20048;-93
2023/09/10 09:23:02;;;;;;;4.57;4.13;;;;;;;24.06;47.80;93731.97;4841498;29;20037;-93
2023/09/10 09:25:30;;;;;;;5.40;4.22;;;;;;;24.07;47.79;93727.91;4852502;23;20042;-94
2023/09/10 09:27:58;;;;;;;3.60;3.30;;;;;;;24.06;47.79;93743.00;4859463;29;20053;-94
2023/09/10 09:30:23;;;;;;;3.88;3.47;;;;;;;24.06;47.91;93734.72;4875120;29;20055;-93
2023/09/10 09:32:49;;;;;;;4.68;4.18;;;;;;;24.06;47.97;93731.97;4835034;29;20037;-93
2023/09/10 09:35:20;;;;;;;3.85;3.53;;;;;;;24.05;47.67;93724.94;4852030;29;20110;-94
2023/09/10 09:37:51;;;;;;;3.22;2.92;;;;;;;24.05;47.90;93726.97;4894716;29;20052;-93
2023/09/10 09:42:42;;;;;;;4.43;4.03;;;;;;;24.05;48.13;93722.19;4897659;23;20051;-94
2023/09/10 09:45:09;;;;;;;3.75;3.45;;;;;;;24.05;48.19;93729.72;4859217;29;20545;-94
2023/09/10 09:47:45;;;;;;;3.95;3.55;;;;;;;24.03;47.96;93735.81;4848781;29;20045;-94
2023/09/10 09:50:13;;;;;;;4.70;4.20;;;;;;;24.04;47.88;93729.00;4859061;29;20565;-93
2023/09/10 09:52:39;;;;;;;4.00;3.60;;;;;;;24.04;47.89;93726.22;4893110;29;20120;-94
2023/09/10 09:55:07;;;;;;;4.82;3.83;;;;;;;24.04;47.83;93726.22;4847032;29;20041;-93
2023/09/10 09:57:36;;;;;;;3.47;3.08;;;;;;;24.03;48.00;93724.78;4857046;29;20069;-91
2023/09/10 10:00:01;;;;;;;4.30;3.90;;;;;;;24.04;47.93;93720.69;4830780;29;20065;-92
2023/09/10 10:02:34;;;;;;;4.05;3.38;;;;;;;24.02;47.82;93719.78;4832407;29;20908;-92
2023/09/10 10:05:00;;;;;;;4.20;3.60;;;;;;;24.04;47.86;93714.44;4877064;29;20059;-91
2023/09/10 10:07:29;;;;;;;3.72;3.38;;;;;;;24.03;47.83;93719.25;4862364;29;20043;-92
2023/09/10 10:09:55;;;;;;;4.03;3.55;;;;;;;24.03;47.64;93708.19;4827694;29;20520;-91
2023/09/10 10:12:20;;;;;;;3.33;3.03;;;;;;;24.03;47.80;93716.50;4787893;29;20055;-91
2023/09/10 10:14:45;;;;;;;3.95;3.55;;;;;;;24.03;47.66;93713.72;4760797;29;20062;-91
2023/09/10 10:17:12;;;;;;;4.00;3.55;;;;;;;24.03;47.75;93708.19;4761224;29;20044;-93
2023/09/10 10:19:38;;;;;;;5.75;3.20;;;;;;;24.03;47.57;93707.47;4775042;29;20352;-92
2023/09/10 10:22:05;;;;;;;3.45;3.13;;;;;;;24.02;47.82;93703.97;4795517;29;20051;-92
2023/09/10 10:24:33;;;;;;;4.00;3.60;;;;;;;24.02;47.91;93706.72;4777125;29;20333;-92
2023/09/10 10:27:00;;;;;;;3.53;3.22;;;;;;;24.02;47.71;93711.50;4787494;29;20059;-92
2023/09/10 10:29:26;;;;;;;4.18;3.78;;;;;;;24.01;47.89;93698.97;4750949;30;20059;-94
2023/09/10 10:32:16;;;;;;;3.45;3.15;;;;;;;24.00;47.96;93701.00;4735354;30;20548;-93
2023/09/10 10:34:52;;;;;;;3.95;3.28;;;;;;;24.00;47.86;93703.00;4737209;30;20316;-94
2023/09/10 10:37:40;;;;;;;4.03;3.30;;;;;;;24.00;47.70;93706.53;4733030;30;20080;-93
2023/09/10 10:40:19;;;;;;;4.38;3.30;;;;;;;24.01;47.82;93707.25;4750930;30;20052;-93
2023/09/10 10:42:50;;;;;;;3.83;3.42;;;;;;;24.00;48.13;93701.00;4761214;29;20519;-93
2023/09/10 10:45:20;;;;;;;3.40;3.10;;;;;;;24.00;47.95;93701.00;4805524;29;20143;-93
2023/09/10 10:47:47;;;;;;;3.83;3.42;;;;;;;24.01;47.79;93701.75;4813310;29;20055;-93
2023/09/10 10:50:13;;;;;;;4.47;3.10;;;;;;;24.01;47.73;93699.72;4803129;29;20043;-93
2023/09/10 10:52:44;;;;;;;3.53;3.13;;;;;;;24.00;48.20;93701.00;4787395;29;20050;-94
2023/09/10 10:55:11;;;;;;;3.70;3.30;;;;;;;24.00;48.00;93703.00;4859032;29;20498;-94
2023/09/10 10:57:36;;;;;;;3.30;3.00;;;;;;;24.00;47.95;93703.00;4841857;29;20042;-93
2023/09/10 11:00:09;;;;;;;4.10;3.30;;;;;;;24.01;48.29;93704.50;4843131;29;20063;-93
2023/09/10 11:02:35;;;;;;;3.20;2.90;;;;;;;24.03;48.07;93701.94;4868204;29;20382;-94
2023/09/10 11:05:04;;;;;;;3.28;2.97;;;;;;;24.00;47.96;93703.75;4850021;29;20519;-93
2023/09/10 11:07:40;;;;;;;3.70;3.13;;;;;;;24.00;47.94;93700.25;4827937;29;20047;-93
2023/09/10 11:10:24;;;;;;;4.53;3.60;;;;;;;23.99;48.09;93698.78;4869958;29;20432;-93
2023/09/10 11:13:19;;;;;;;4.32;3.53;;;;;;;23.98;48.16;93703.56;4893130;29;20040;-94
2023/09/10 11:16:05;;;;;;;2.90;2.63;;;;;;;23.98;48.10;93694.53;4804404;29;20046;-92
2023/09/10 11:18:37;;;;;;;3.45;3.15;;;;;;;23.98;48.09;93695.28;4764520;23;20059;-93
2023/09/10 11:21:09;;;;;;;3.80;3.47;;;;;;;23.99;48.14;93682.19;4878123;29;20519;-92
2023/09/10 11:23:37;;;;;;;3.88;3.53;;;;;;;23.99;48.09;93696.75;4829791;29;20057;-95
2023/09/10 11:26:14;;;;;;;4.70;3.80;;;;;;;23.99;47.90;93682.94;4843166;29;20170;-93
2023/09/10 11:28:52;;;;;;;3.35;3.05;;;;;;;23.99;47.98;93693.25;4859866;29;20103;-94
2023/09/10 11:31:39;;;;;;;4.00;2.95;;;;;;;23.99;48.11;93696.75;4826874;29;20517;-93
2023/09/10 11:34:28;;;;;;;3.33;3.03;;;;;;;23.99;48.03;93684.97;4839150;29;20055;-94
2023/09/10 11:37:04;;;;;;;3.30;3.00;;;;;;;24.00;48.14;93689.22;4820092;29;20053;-94
2023/09/10 11:39:34;;;;;;;3.92;3.58;;;;;;;23.99;48.08;93688.47;4756620;29;20108;-93
2023/09/10 11:42:03;;;;;;;3.28;2.97;;;;;;;23.98;47.97;93681.47;4741319;30;20064;-95
2023/09/10 11:44:30;;;;;;;3.65;3.08;;;;;;;24.00;48.29;93692.72;4787445;29;20165;-94